sensor_id;sensor_type;location;lat;lon;timestamp;pressure;altitude;pressure_sealevel;temperature;humidity
30343;BME280;17145;49.902;8.680;'2023-05-19 01:58:17';100770;;;12;37
30343;BME280;17145;49.902;8.680;'2023-05-19 02:00:45';100770;;;12;38
30343;BME280;17145;49.902;8.680;'2023-05-19 02:03:13';100770;;;12;38
30343;BME280;17145;49.902;8.680;'2023-05-19 02:05:42';100770;;;12;38
30343;BME280;17145;49.902;8.680;'2023-05-19 02:08:10';100770;;;12;38
30343;BME280;17145;49.902;8.680;'2023-05-19 02:10:38';100770;;;12;38
30343;BME280;17145;49.902;8.680;'2023-05-19 02:13:07';100770;;;12;38
30343;BME280;17145;49.902;8.680;'2023-05-19 02:15:35';100770;;;12;38
30343;BME280;17145;49.902;8.680;'2023-05-19 02:18:02';100770;;;12;38
30343;BME280;17145;49.902;8.680;'2023-05-19 02:20:30';100770;;;12;38
30343;BME280;17145;49.902;8.680;'2023-05-19 02:22:57';100770;;;12;38
30343;BME280;17145;49.902;8.680;'2023-05-19 02:25:25';100770;;;12;38
30343;BME280;17145;49.902;8.680;'2023-05-19 02:27:52';100770;;;12;38
30343;BME280;17145;49.902;8.680;'2023-05-19 02:30:20';100770;;;11;38
30343;BME280;17145;49.902;8.680;'2023-05-19 02:32:47';100770;;;11;38
30343;BME280;17145;49.902;8.680;'2023-05-19 02:35:15';100770;;;11;39
30343;BME280;17145;49.902;8.680;'2023-05-19 02:37:42';100770;;;11;39
30343;BME280;17145;49.902;8.680;'2023-05-19 02:40:10';100770;;;12;39
30343;BME280;17145;49.902;8.680;'2023-05-19 02:42:37';100770;;;11;39
30343;BME280;17145;49.902;8.680;'2023-05-19 02:45:06';100770;;;11;39
30343;BME280;17145;49.902;8.680;'2023-05-19 02:47:34';100760;;;11;39
30343;BME280;17145;49.902;8.680;'2023-05-19 02:50:01';100760;;;11;39
30343;BME280;17145;49.902;8.680;'2023-05-19 02:52:28';100760;;;11;39
30343;BME280;17145;49.902;8.680;'2023-05-19 02:54:56';100760;;;11;39
30343;BME280;17145;49.902;8.680;'2023-05-19 02:57:23';100760;;;11;39
30343;BME280;17145;49.902;8.680;'2023-05-19 02:59:51';100760;;;11;39
30343;BME280;17145;49.902;8.680;'2023-05-19 03:02:18';100750;;;11;39
30343;BME280;17145;49.902;8.680;'2023-05-19 03:04:46';100750;;;11;39
30343;BME280;17145;49.902;8.680;'2023-05-19 03:07:14';100750;;;11;39
30343;BME280;17145;49.902;8.680;'2023-05-19 03:09:42';100750;;;11;40
30343;BME280;17145;49.902;8.680;'2023-05-19 03:12:09';100750;;;11;40
30343;BME280;17145;49.902;8.680;'2023-05-19 03:14:37';100740;;;11;40
30343;BME280;17145;49.902;8.680;'2023-05-19 03:17:12';100740;;;11;40
30343;BME280;17145;49.902;8.680;'2023-05-19 03:19:51';100740;;;11;40
30343;BME280;17145;49.902;8.680;'2023-05-19 03:22:34';100740;;;11;40
30343;BME280;17145;49.902;8.680;'2023-05-19 03:27:57';100740;;;11;40
30343;BME280;17145;49.902;8.680;'2023-05-19 03:30:28';100740;;;11;40
30343;BME280;17145;49.902;8.680;'2023-05-19 03:33:00';100740;;;11;40
30343;BME280;17145;49.902;8.680;'2023-05-19 03:35:29';100740;;;11;40
30343;BME280;17145;49.902;8.680;'2023-05-19 03:37:58';100740;;;11;40
30343;BME280;17145;49.902;8.680;'2023-05-19 03:40:27';100740;;;11;40
30343;BME280;17145;49.902;8.680;'2023-05-19 03:42:57';100740;;;11;40
30343;BME280;17145;49.902;8.680;'2023-05-19 03:45:26';100740;;;11;40
30343;BME280;17145;49.902;8.680;'2023-05-19 03:47:56';100740;;;11;40
30343;BME280;17145;49.902;8.680;'2023-05-19 03:50:23';100740;;;11;40
30343;BME280;17145;49.902;8.680;'2023-05-19 03:52:51';100740;;;11;40
30343;BME280;17145;49.902;8.680;'2023-05-19 03:55:19';100740;;;11;40
30343;BME280;17145;49.902;8.680;'2023-05-19 03:57:58';100740;;;11;40
30343;BME280;17145;49.902;8.680;'2023-05-19 04:00:35';100750;;;11;41
30343;BME280;17145;49.902;8.680;'2023-05-19 04:03:13';100740;;;11;41
30343;BME280;17145;49.902;8.680;'2023-05-19 04:05:49';100750;;;11;41
30343;BME280;17145;49.902;8.680;'2023-05-19 04:08:25';100750;;;11;41
30343;BME280;17145;49.902;8.680;'2023-05-19 04:10:59';100750;;;11;41
30343;BME280;17145;49.902;8.680;'2023-05-19 04:13:30';100760;;;11;41
30343;BME280;17145;49.902;8.680;'2023-05-19 04:16:03';100760;;;10;41
30343;BME280;17145;49.902;8.680;'2023-05-19 04:18:32';100760;;;10;41
30343;BME280;17145;49.902;8.680;'2023-05-19 04:20:59';100760;;;11;41
30343;BME280;17145;49.902;8.680;'2023-05-19 04:23:27';100750;;;10;42
30343;BME280;17145;49.902;8.680;'2023-05-19 04:25:54';100750;;;10;42
30343;BME280;17145;49.902;8.680;'2023-05-19 04:28:22';100750;;;10;42
30343;BME280;17145;49.902;8.680;'2023-05-19 04:30:49';100750;;;10;42
30343;BME280;17145;49.902;8.680;'2023-05-19 04:33:16';100750;;;10;42
30343;BME280;17145;49.902;8.680;'2023-05-19 04:35:44';100750;;;10;42
30343;BME280;17145;49.902;8.680;'2023-05-19 04:38:11';100750;;;10;42
30343;BME280;17145;49.902;8.680;'2023-05-19 04:40:38';100740;;;10;42
30343;BME280;17145;49.902;8.680;'2023-05-19 04:43:06';100740;;;10;42
30343;BME280;17145;49.902;8.680;'2023-05-19 04:45:33';100740;;;10;42
30343;BME280;17145;49.902;8.680;'2023-05-19 04:48:01';100730;;;10;42
30343;BME280;17145;49.902;8.680;'2023-05-19 04:50:28';100730;;;10;42
30343;BME280;17145;49.902;8.680;'2023-05-19 04:52:55';100730;;;10;42
30343;BME280;17145;49.902;8.680;'2023-05-19 04:55:22';100730;;;10;42
30343;BME280;17145;49.902;8.680;'2023-05-19 04:57:50';100730;;;10;42
30343;BME280;17145;49.902;8.680;'2023-05-19 05:00:17';100730;;;10;42
30343;BME280;17145;49.902;8.680;'2023-05-19 05:02:45';100730;;;10;42
30343;BME280;17145;49.902;8.680;'2023-05-19 05:05:12';100730;;;10;42
30343;BME280;17145;49.902;8.680;'2023-05-19 05:07:39';100730;;;10;42
30343;BME280;17145;49.902;8.680;'2023-05-19 05:10:07';100730;;;10;42
30343;BME280;17145;49.902;8.680;'2023-05-19 05:12:35';100730;;;10;42
30343;BME280;17145;49.902;8.680;'2023-05-19 05:15:03';100730;;;10;42
30343;BME280;17145;49.902;8.680;'2023-05-19 05:17:30';100730;;;10;42
30343;BME280;17145;49.902;8.680;'2023-05-19 05:19:57';100740;;;10;42
30343;BME280;17145;49.902;8.680;'2023-05-19 05:22:24';100730;;;10;42
30343;BME280;17145;49.902;8.680;'2023-05-19 05:24:52';100730;;;10;42
30343;BME280;17145;49.902;8.680;'2023-05-19 05:27:19';100730;;;10;42
30343;BME280;17145;49.902;8.680;'2023-05-19 05:29:46';100730;;;10;42
30343;BME280;17145;49.902;8.680;'2023-05-19 05:32:14';100740;;;10;42
30343;BME280;17145;49.902;8.680;'2023-05-19 05:34:41';100740;;;10;42
30343;BME280;17145;49.902;8.680;'2023-05-19 05:37:08';100740;;;10;42
30343;BME280;17145;49.902;8.680;'2023-05-19 05:39:36';100740;;;10;42
30343;BME280;17145;49.902;8.680;'2023-05-19 05:42:04';100750;;;10;42
30343;BME280;17145;49.902;8.680;'2023-05-19 05:44:31';100750;;;10;42
30343;BME280;17145;49.902;8.680;'2023-05-19 05:46:58';100750;;;10;42
30343;BME280;17145;49.902;8.680;'2023-05-19 05:49:26';100750;;;10;42
30343;BME280;17145;49.902;8.680;'2023-05-19 05:51:53';100750;;;10;42
30343;BME280;17145;49.902;8.680;'2023-05-19 05:54:20';100750;;;10;43
30343;BME280;17145;49.902;8.680;'2023-05-19 05:56:48';100750;;;10;43
30343;BME280;17145;49.902;8.680;'2023-05-19 05:59:16';100750;;;10;43
30343;BME280;17145;49.902;8.680;'2023-05-19 06:01:43';100750;;;10;43
30343;BME280;17145;49.902;8.680;'2023-05-19 06:04:11';100750;;;10;42
30343;BME280;17145;49.902;8.680;'2023-05-19 06:06:38';100750;;;10;43
30343;BME280;17145;49.902;8.680;'2023-05-19 06:09:11';100750;;;10;43
30343;BME280;17145;49.902;8.680;'2023-05-19 06:11:38';100750;;;10;43
30343;BME280;17145;49.902;8.680;'2023-05-19 06:14:06';100740;;;10;43
30343;BME280;17145;49.902;8.680;'2023-05-19 06:16:33';100750;;;10;42
30343;BME280;17145;49.902;8.680;'2023-05-19 06:19:01';100750;;;10;42
30343;BME280;17145;49.902;8.680;'2023-05-19 06:21:28';100750;;;10;42
30343;BME280;17145;49.902;8.680;'2023-05-19 06:23:55';100750;;;10;42
30343;BME280;17145;49.902;8.680;'2023-05-19 06:26:23';100750;;;10;43
30343;BME280;17145;49.902;8.680;'2023-05-19 06:28:50';100750;;;10;43
30343;BME280;17145;49.902;8.680;'2023-05-19 06:31:18';100750;;;10;43
30343;BME280;17145;49.902;8.680;'2023-05-19 06:33:45';100750;;;10;43
30343;BME280;17145;49.902;8.680;'2023-05-19 06:36:13';100750;;;10;43
30343;BME280;17145;49.902;8.680;'2023-05-19 06:38:40';100750;;;10;42
30343;BME280;17145;49.902;8.680;'2023-05-19 06:41:08';100760;;;10;42
30343;BME280;17145;49.902;8.680;'2023-05-19 06:43:35';100760;;;10;42
30343;BME280;17145;49.902;8.680;'2023-05-19 06:46:02';100760;;;10;42
30343;BME280;17145;49.902;8.680;'2023-05-19 06:48:30';100760;;;10;42
30343;BME280;17145;49.902;8.680;'2023-05-19 06:50:57';100760;;;10;42
30343;BME280;17145;49.902;8.680;'2023-05-19 06:53:24';100760;;;10;42
30343;BME280;17145;49.902;8.680;'2023-05-19 06:55:52';100760;;;10;42
30343;BME280;17145;49.902;8.680;'2023-05-19 06:58:19';100770;;;10;43
30343;BME280;17145;49.902;8.680;'2023-05-19 07:00:46';100760;;;10;42
30343;BME280;17145;49.902;8.680;'2023-05-19 07:03:14';100770;;;10;42
30343;BME280;17145;49.902;8.680;'2023-05-19 07:05:41';100770;;;10;42
30343;BME280;17145;49.902;8.680;'2023-05-19 07:08:09';100760;;;10;42
30343;BME280;17145;49.902;8.680;'2023-05-19 07:10:36';100770;;;10;42
30343;BME280;17145;49.902;8.680;'2023-05-19 07:13:04';100760;;;10;42
30343;BME280;17145;49.902;8.680;'2023-05-19 07:15:32';100770;;;11;42
30343;BME280;17145;49.902;8.680;'2023-05-19 07:18:00';100760;;;11;42
30343;BME280;17145;49.902;8.680;'2023-05-19 07:20:28';100760;;;11;42
30343;BME280;17145;49.902;8.680;'2023-05-19 07:22:56';100760;;;11;42
30343;BME280;17145;49.902;8.680;'2023-05-19 07:25:24';100760;;;11;42
30343;BME280;17145;49.902;8.680;'2023-05-19 07:27:51';100760;;;10;42
30343;BME280;17145;49.902;8.680;'2023-05-19 07:30:18';100760;;;11;42
30343;BME280;17145;49.902;8.680;'2023-05-19 07:32:46';100750;;;11;42
30343;BME280;17145;49.902;8.680;'2023-05-19 07:35:13';100750;;;10;42
30343;BME280;17145;49.902;8.680;'2023-05-19 07:37:41';100750;;;11;42
30343;BME280;17145;49.902;8.680;'2023-05-19 07:40:09';100750;;;11;42
30343;BME280;17145;49.902;8.680;'2023-05-19 07:42:36';100750;;;11;42
30343;BME280;17145;49.902;8.680;'2023-05-19 07:45:04';100750;;;11;41
30343;BME280;17145;49.902;8.680;'2023-05-19 07:47:32';100750;;;11;41
30343;BME280;17145;49.902;8.680;'2023-05-19 07:50:00';100750;;;11;41
30343;BME280;17145;49.902;8.680;'2023-05-19 07:52:30';100750;;;11;41
30343;BME280;17145;49.902;8.680;'2023-05-19 07:54:59';100750;;;11;41
30343;BME280;17145;49.902;8.680;'2023-05-19 07:57:26';100750;;;11;41
30343;BME280;17145;49.902;8.680;'2023-05-19 07:59:53';100750;;;12;41
30343;BME280;17145;49.902;8.680;'2023-05-19 08:02:21';100750;;;12;41
30343;BME280;17145;49.902;8.680;'2023-05-19 08:04:48';100750;;;11;41
30343;BME280;17145;49.902;8.680;'2023-05-19 08:07:15';100750;;;11;41
30343;BME280;17145;49.902;8.680;'2023-05-19 08:09:43';100750;;;12;41
30343;BME280;17145;49.902;8.680;'2023-05-19 08:12:10';100750;;;12;41
30343;BME280;17145;49.902;8.680;'2023-05-19 08:14:38';100750;;;12;41
30343;BME280;17145;49.902;8.680;'2023-05-19 08:17:05';100750;;;12;41
30343;BME280;17145;49.902;8.680;'2023-05-19 08:19:32';100750;;;12;40
30343;BME280;17145;49.902;8.680;'2023-05-19 08:22:00';100750;;;12;40
30343;BME280;17145;49.902;8.680;'2023-05-19 08:24:27';100740;;;12;40
30343;BME280;17145;49.902;8.680;'2023-05-19 08:26:54';100740;;;12;40
30343;BME280;17145;49.902;8.680;'2023-05-19 08:29:22';100740;;;12;40
30343;BME280;17145;49.902;8.680;'2023-05-19 08:31:49';100740;;;12;40
30343;BME280;17145;49.902;8.680;'2023-05-19 08:34:16';100750;;;12;40
30343;BME280;17145;49.902;8.680;'2023-05-19 08:36:44';100750;;;12;40
30343;BME280;17145;49.902;8.680;'2023-05-19 08:39:11';100750;;;12;40
30343;BME280;17145;49.902;8.680;'2023-05-19 08:41:38';100750;;;13;40
30343;BME280;17145;49.902;8.680;'2023-05-19 08:44:06';100750;;;13;40
30343;BME280;17145;49.902;8.680;'2023-05-19 08:46:34';100750;;;12;40
30343;BME280;17145;49.902;8.680;'2023-05-19 08:49:02';100750;;;13;39
30343;BME280;17145;49.902;8.680;'2023-05-19 08:51:29';100740;;;13;40
30343;BME280;17145;49.902;8.680;'2023-05-19 08:53:56';100740;;;13;39
30343;BME280;17145;49.902;8.680;'2023-05-19 08:56:24';100740;;;13;39
30343;BME280;17145;49.902;8.680;'2023-05-19 08:58:51';100740;;;13;39
30343;BME280;17145;49.902;8.680;'2023-05-19 09:01:18';100750;;;13;39
30343;BME280;17145;49.902;8.680;'2023-05-19 09:03:46';100740;;;13;39
30343;BME280;17145;49.902;8.680;'2023-05-19 09:06:13';100740;;;13;39
30343;BME280;17145;49.902;8.680;'2023-05-19 09:08:40';100740;;;13;39
30343;BME280;17145;49.902;8.680;'2023-05-19 09:11:08';100740;;;13;39
30343;BME280;17145;49.902;8.680;'2023-05-19 09:13:35';100740;;;13;38
30343;BME280;17145;49.902;8.680;'2023-05-19 09:16:03';100730;;;13;38
30343;BME280;17145;49.902;8.680;'2023-05-19 09:18:30';100730;;;14;38
30343;BME280;17145;49.902;8.680;'2023-05-19 09:20:57';100730;;;14;38
30343;BME280;17145;49.902;8.680;'2023-05-19 09:23:25';100730;;;14;38
30343;BME280;17145;49.902;8.680;'2023-05-19 09:25:54';100720;;;14;38
30343;BME280;17145;49.902;8.680;'2023-05-19 09:28:22';100720;;;14;38
30343;BME280;17145;49.902;8.680;'2023-05-19 09:30:49';100720;;;14;37
30343;BME280;17145;49.902;8.680;'2023-05-19 09:33:17';100720;;;14;37
30343;BME280;17145;49.902;8.680;'2023-05-19 09:35:44';100720;;;14;37
30343;BME280;17145;49.902;8.680;'2023-05-19 09:38:12';100720;;;14;36
30343;BME280;17145;49.902;8.680;'2023-05-19 09:40:39';100710;;;14;36
30343;BME280;17145;49.902;8.680;'2023-05-19 09:43:06';100710;;;14;36
30343;BME280;17145;49.902;8.680;'2023-05-19 09:45:34';100710;;;14;37
30343;BME280;17145;49.902;8.680;'2023-05-19 09:48:01';100710;;;14;37
30343;BME280;17145;49.902;8.680;'2023-05-19 09:50:29';100710;;;14;36
30343;BME280;17145;49.902;8.680;'2023-05-19 09:52:56';100710;;;14;37
30343;BME280;17145;49.902;8.680;'2023-05-19 09:55:23';100700;;;15;37
30343;BME280;17145;49.902;8.680;'2023-05-19 09:57:51';100700;;;15;37
30343;BME280;17145;49.902;8.680;'2023-05-19 10:00:18';100690;;;15;37
30343;BME280;17145;49.902;8.680;'2023-05-19 10:02:46';100690;;;15;36
30343;BME280;17145;49.902;8.680;'2023-05-19 10:05:13';100690;;;15;36
30343;BME280;17145;49.902;8.680;'2023-05-19 10:07:41';100690;;;15;37
30343;BME280;17145;49.902;8.680;'2023-05-19 10:10:08';100690;;;15;36
30343;BME280;17145;49.902;8.680;'2023-05-19 10:12:36';100690;;;15;36
30343;BME280;17145;49.902;8.680;'2023-05-19 10:15:04';100680;;;15;36
30343;BME280;17145;49.902;8.680;'2023-05-19 10:17:31';100690;;;15;35
30343;BME280;17145;49.902;8.680;'2023-05-19 10:19:59';100690;;;16;36
30343;BME280;17145;49.902;8.680;'2023-05-19 10:22:26';100690;;;15;35
30343;BME280;17145;49.902;8.680;'2023-05-19 10:24:53';100690;;;15;34
30343;BME280;17145;49.902;8.680;'2023-05-19 10:27:21';100680;;;15;34
30343;BME280;17145;49.902;8.680;'2023-05-19 10:29:48';100680;;;15;35
30343;BME280;17145;49.902;8.680;'2023-05-19 10:32:16';100680;;;16;35
30343;BME280;17145;49.902;8.680;'2023-05-19 10:34:43';100680;;;16;34
30343;BME280;17145;49.902;8.680;'2023-05-19 10:37:10';100670;;;16;34
30343;BME280;17145;49.902;8.680;'2023-05-19 10:39:38';100670;;;16;34
30343;BME280;17145;49.902;8.680;'2023-05-19 10:42:06';100670;;;16;35
30343;BME280;17145;49.902;8.680;'2023-05-19 10:44:34';100670;;;16;33
30343;BME280;17145;49.902;8.680;'2023-05-19 10:47:03';100660;;;16;34
30343;BME280;17145;49.902;8.680;'2023-05-19 10:49:34';100660;;;16;33
30343;BME280;17145;49.902;8.680;'2023-05-19 10:52:10';100650;;;16;34
30343;BME280;17145;49.902;8.680;'2023-05-19 10:54:44';100650;;;16;34
30343;BME280;17145;49.902;8.680;'2023-05-19 10:57:12';100650;;;16;34
30343;BME280;17145;49.902;8.680;'2023-05-19 10:59:42';100650;;;17;33
30343;BME280;17145;49.902;8.680;'2023-05-19 11:02:11';100650;;;17;32
30343;BME280;17145;49.902;8.680;'2023-05-19 11:04:39';100650;;;17;32
30343;BME280;17145;49.902;8.680;'2023-05-19 11:07:07';100640;;;17;32
30343;BME280;17145;49.902;8.680;'2023-05-19 11:09:35';100640;;;17;33
30343;BME280;17145;49.902;8.680;'2023-05-19 11:12:03';100640;;;17;32
30343;BME280;17145;49.902;8.680;'2023-05-19 11:14:32';100630;;;17;32
30343;BME280;17145;49.902;8.680;'2023-05-19 11:17:00';100630;;;17;31
30343;BME280;17145;49.902;8.680;'2023-05-19 11:19:28';100630;;;17;31
30343;BME280;17145;49.902;8.680;'2023-05-19 11:21:59';100630;;;17;31
30343;BME280;17145;49.902;8.680;'2023-05-19 11:24:27';100630;;;17;30
30343;BME280;17145;49.902;8.680;'2023-05-19 11:26:56';100630;;;17;32
30343;BME280;17145;49.902;8.680;'2023-05-19 11:29:23';100620;;;17;32
30343;BME280;17145;49.902;8.680;'2023-05-19 11:31:54';100620;;;17;32
30343;BME280;17145;49.902;8.680;'2023-05-19 11:34:22';100620;;;17;31
30343;BME280;17145;49.902;8.680;'2023-05-19 11:36:49';100620;;;17;31
30343;BME280;17145;49.902;8.680;'2023-05-19 11:39:18';100620;;;16;31
30343;BME280;17145;49.902;8.680;'2023-05-19 11:41:46';100620;;;17;31
30343;BME280;17145;49.902;8.680;'2023-05-19 11:44:21';100620;;;17;31
30343;BME280;17145;49.902;8.680;'2023-05-19 11:46:49';100610;;;17;31
30343;BME280;17145;49.902;8.680;'2023-05-19 11:49:19';100610;;;17;32
30343;BME280;17145;49.902;8.680;'2023-05-19 11:51:49';100610;;;17;31
30343;BME280;17145;49.902;8.680;'2023-05-19 11:54:19';100610;;;17;32
30343;BME280;17145;49.902;8.680;'2023-05-19 11:56:51';100600;;;18;32
30343;BME280;17145;49.902;8.680;'2023-05-19 11:59:22';100600;;;18;31
30343;BME280;17145;49.902;8.680;'2023-05-19 12:01:52';100600;;;17;30
30343;BME280;17145;49.902;8.680;'2023-05-19 12:04:21';100600;;;17;31
30343;BME280;17145;49.902;8.680;'2023-05-19 12:06:49';100600;;;18;30
30343;BME280;17145;49.902;8.680;'2023-05-19 12:09:17';100600;;;18;31
30343;BME280;17145;49.902;8.680;'2023-05-19 12:11:45';100590;;;18;30
30343;BME280;17145;49.902;8.680;'2023-05-19 12:14:12';100590;;;18;29
30343;BME280;17145;49.902;8.680;'2023-05-19 12:16:40';100590;;;18;30
30343;BME280;17145;49.902;8.680;'2023-05-19 12:19:09';100590;;;18;31
30343;BME280;17145;49.902;8.680;'2023-05-19 12:21:37';100590;;;18;30
30343;BME280;17145;49.902;8.680;'2023-05-19 12:24:05';100580;;;18;29
30343;BME280;17145;49.902;8.680;'2023-05-19 12:26:34';100580;;;18;30
30343;BME280;17145;49.902;8.680;'2023-05-19 12:29:04';100580;;;18;30
30343;BME280;17145;49.902;8.680;'2023-05-19 12:31:33';100580;;;19;30
30343;BME280;17145;49.902;8.680;'2023-05-19 12:34:18';100570;;;19;30
30343;BME280;17145;49.902;8.680;'2023-05-19 12:36:49';100570;;;19;30
30343;BME280;17145;49.902;8.680;'2023-05-19 12:39:21';100570;;;19;30
30343;BME280;17145;49.902;8.680;'2023-05-19 12:42:00';100580;;;19;30
30343;BME280;17145;49.902;8.680;'2023-05-19 12:44:39';100570;;;18;29
30343;BME280;17145;49.902;8.680;'2023-05-19 12:47:07';100570;;;18;29
30343;BME280;17145;49.902;8.680;'2023-05-19 12:49:35';100570;;;19;29
30343;BME280;17145;49.902;8.680;'2023-05-19 12:52:03';100570;;;19;29
30343;BME280;17145;49.902;8.680;'2023-05-19 12:54:39';100570;;;19;30
30343;BME280;17145;49.902;8.680;'2023-05-19 12:57:07';100560;;;19;29
30343;BME280;17145;49.902;8.680;'2023-05-19 12:59:35';100550;;;19;28
30343;BME280;17145;49.902;8.680;'2023-05-19 13:02:03';100550;;;20;28
30343;BME280;17145;49.902;8.680;'2023-05-19 13:04:44';100550;;;20;29
30343;BME280;17145;49.902;8.680;'2023-05-19 13:07:16';100550;;;19;28
30343;BME280;17145;49.902;8.680;'2023-05-19 13:09:47';100550;;;19;28
30343;BME280;17145;49.902;8.680;'2023-05-19 13:12:19';100540;;;20;28
30343;BME280;17145;49.902;8.680;'2023-05-19 13:14:47';100540;;;19;28
30343;BME280;17145;49.902;8.680;'2023-05-19 13:17:15';100540;;;20;29
30343;BME280;17145;49.902;8.680;'2023-05-19 13:19:52';100540;;;20;28
30343;BME280;17145;49.902;8.680;'2023-05-19 13:22:23';100530;;;20;28
30343;BME280;17145;49.902;8.680;'2023-05-19 13:24:53';100530;;;20;28
30343;BME280;17145;49.902;8.680;'2023-05-19 13:27:24';100530;;;20;28
30343;BME280;17145;49.902;8.680;'2023-05-19 13:29:52';100530;;;20;29
30343;BME280;17145;49.902;8.680;'2023-05-19 13:32:21';100530;;;20;28
30343;BME280;17145;49.902;8.680;'2023-05-19 13:34:48';100530;;;20;28
30343;BME280;17145;49.902;8.680;'2023-05-19 13:37:16';100520;;;20;29
30343;BME280;17145;49.902;8.680;'2023-05-19 13:39:45';100530;;;20;28
30343;BME280;17145;49.902;8.680;'2023-05-19 13:42:13';100520;;;21;28
30343;BME280;17145;49.902;8.680;'2023-05-19 13:44:41';100520;;;21;28
30343;BME280;17145;49.902;8.680;'2023-05-19 13:47:09';100510;;;21;27
30343;BME280;17145;49.902;8.680;'2023-05-19 13:49:37';100510;;;21;28
30343;BME280;17145;49.902;8.680;'2023-05-19 13:52:05';100510;;;21;27
30343;BME280;17145;49.902;8.680;'2023-05-19 13:54:33';100510;;;21;27
30343;BME280;17145;49.902;8.680;'2023-05-19 13:57:02';100500;;;21;27
30343;BME280;17145;49.902;8.680;'2023-05-19 13:59:30';100500;;;21;27
30343;BME280;17145;49.902;8.680;'2023-05-19 14:02:00';100500;;;21;27
30343;BME280;17145;49.902;8.680;'2023-05-19 14:04:28';100500;;;21;27
30343;BME280;17145;49.902;8.680;'2023-05-19 14:06:55';100500;;;21;27
30343;BME280;17145;49.902;8.680;'2023-05-19 14:09:24';100500;;;21;27
30343;BME280;17145;49.902;8.680;'2023-05-19 14:11:51';100500;;;21;26
30343;BME280;17145;49.902;8.680;'2023-05-19 14:14:18';100500;;;20;26
30343;BME280;17145;49.902;8.680;'2023-05-19 14:16:46';100500;;;20;26
30343;BME280;17145;49.902;8.680;'2023-05-19 14:19:13';100500;;;21;27
30343;BME280;17145;49.902;8.680;'2023-05-19 14:21:41';100500;;;21;28
30343;BME280;17145;49.902;8.680;'2023-05-19 14:24:08';100500;;;21;28
30343;BME280;17145;49.902;8.680;'2023-05-19 14:26:36';100500;;;21;27
30343;BME280;17145;49.902;8.680;'2023-05-19 14:29:05';100500;;;21;28
30343;BME280;17145;49.902;8.680;'2023-05-19 14:31:33';100490;;;21;28
30343;BME280;17145;49.902;8.680;'2023-05-19 14:34:00';100490;;;21;28
30343;BME280;17145;49.902;8.680;'2023-05-19 14:36:28';100490;;;21;27
30343;BME280;17145;49.902;8.680;'2023-05-19 14:38:55';100490;;;21;27
30343;BME280;17145;49.902;8.680;'2023-05-19 14:41:23';100490;;;21;27
30343;BME280;17145;49.902;8.680;'2023-05-19 14:43:51';100490;;;21;28
30343;BME280;17145;49.902;8.680;'2023-05-19 14:46:18';100490;;;21;27
30343;BME280;17145;49.902;8.680;'2023-05-19 14:48:46';100490;;;21;28
30343;BME280;17145;49.902;8.680;'2023-05-19 14:51:17';100490;;;21;27
30343;BME280;17145;49.902;8.680;'2023-05-19 14:53:45';100480;;;21;27
30343;BME280;17145;49.902;8.680;'2023-05-19 14:56:14';100480;;;21;27
30343;BME280;17145;49.902;8.680;'2023-05-19 14:58:42';100480;;;21;28
30343;BME280;17145;49.902;8.680;'2023-05-19 15:01:15';100480;;;21;27
30343;BME280;17145;49.902;8.680;'2023-05-19 15:03:43';100480;;;21;26
30343;BME280;17145;49.902;8.680;'2023-05-19 15:06:10';100480;;;22;27
30343;BME280;17145;49.902;8.680;'2023-05-19 15:08:38';100480;;;22;27
30343;BME280;17145;49.902;8.680;'2023-05-19 15:11:05';100470;;;21;27
30343;BME280;17145;49.902;8.680;'2023-05-19 15:13:33';100470;;;21;27
30343;BME280;17145;49.902;8.680;'2023-05-19 15:16:01';100470;;;21;28
30343;BME280;17145;49.902;8.680;'2023-05-19 15:18:28';100470;;;20;28
30343;BME280;17145;49.902;8.680;'2023-05-19 15:20:56';100470;;;20;29
30343;BME280;17145;49.902;8.680;'2023-05-19 15:23:24';100470;;;21;28
30343;BME280;17145;49.902;8.680;'2023-05-19 15:25:51';100470;;;20;29
30343;BME280;17145;49.902;8.680;'2023-05-19 15:28:18';100470;;;20;29
30343;BME280;17145;49.902;8.680;'2023-05-19 15:30:46';100460;;;21;29
30343;BME280;17145;49.902;8.680;'2023-05-19 15:33:13';100460;;;21;28
30343;BME280;17145;49.902;8.680;'2023-05-19 15:35:41';100460;;;20;28
30343;BME280;17145;49.902;8.680;'2023-05-19 15:38:08';100470;;;20;29
30343;BME280;17145;49.902;8.680;'2023-05-19 15:40:36';100460;;;20;29
30343;BME280;17145;49.902;8.680;'2023-05-19 15:43:04';100460;;;20;29
30343;BME280;17145;49.902;8.680;'2023-05-19 15:45:31';100470;;;20;29
30343;BME280;17145;49.902;8.680;'2023-05-19 15:47:58';100470;;;20;30
30343;BME280;17145;49.902;8.680;'2023-05-19 15:50:26';100470;;;20;29
30343;BME280;17145;49.902;8.680;'2023-05-19 15:52:53';100470;;;20;29
30343;BME280;17145;49.902;8.680;'2023-05-19 15:55:21';100460;;;20;29
30343;BME280;17145;49.902;8.680;'2023-05-19 15:57:48';100460;;;21;29
30343;BME280;17145;49.902;8.680;'2023-05-19 16:00:16';100460;;;20;29
30343;BME280;17145;49.902;8.680;'2023-05-19 16:02:44';100450;;;21;29
30343;BME280;17145;49.902;8.680;'2023-05-19 16:05:11';100450;;;21;29
30343;BME280;17145;49.902;8.680;'2023-05-19 16:07:39';100450;;;21;29
30343;BME280;17145;49.902;8.680;'2023-05-19 16:10:07';100450;;;21;29
30343;BME280;17145;49.902;8.680;'2023-05-19 16:12:35';100450;;;21;29
30343;BME280;17145;49.902;8.680;'2023-05-19 16:15:05';100450;;;21;29